createdAt,value
2022-11-19T00:03:57.584Z,100619.80
2022-11-19T00:09:21.832Z,100609.33
2022-11-19T00:14:44.896Z,100619.78
2022-11-19T00:20:07.101Z,100611.03
2022-11-19T00:25:31.571Z,100610.12
2022-11-19T00:30:55.774Z,100610.14
2022-11-19T00:36:21.490Z,100611.08
2022-11-19T00:41:44.475Z,100612.07
2022-11-19T00:47:07.945Z,100615.59
2022-11-19T00:52:30.180Z,100613.02
2022-11-19T00:57:52.356Z,100610.40
2022-11-19T01:03:14.545Z,100613.02
2022-11-19T01:08:38.098Z,100621.82
2022-11-19T01:14:01.139Z,100617.63
2022-11-19T01:19:24.591Z,100617.67
2022-11-19T01:24:46.785Z,100614.21
2022-11-19T01:30:08.954Z,100613.34
2022-11-19T01:35:31.165Z,100607.20
2022-11-19T01:40:56.752Z,100603.77
2022-11-19T01:46:20.327Z,100603.09
2022-11-19T01:52:05.010Z,100604.82
2022-11-19T01:57:30.586Z,100597.92
2022-11-19T02:02:53.199Z,100598.84
2022-11-19T02:08:22.331Z,100597.17
2022-11-19T02:13:52.047Z,100597.14
2022-11-19T02:19:26.221Z,100600.64
2022-11-19T02:25:00.690Z,100602.43
2022-11-19T02:30:26.099Z,100603.30
2022-11-19T02:36:12.458Z,100606.71
2022-11-19T02:41:49.883Z,100596.25
2022-11-19T02:47:17.996Z,100603.14
2022-11-19T02:52:43.499Z,100607.50
2022-11-19T02:58:46.202Z,100618.86
2022-11-19T03:04:28.878Z,100618.88
2022-11-19T03:09:56.729Z,100621.42
2022-11-19T03:21:37.052Z,100623.92
2022-11-19T03:27:06.997Z,100620.50
2022-11-19T03:32:40.045Z,100626.50
2022-11-19T03:38:06.477Z,100621.19
2022-11-19T03:43:33.798Z,100628.06
2022-11-19T03:48:59.147Z,100623.66
2022-11-19T03:54:22.273Z,100621.89
2022-11-19T03:59:45.978Z,100614.00
2022-11-19T04:05:09.706Z,100613.03
2022-11-19T04:10:31.942Z,100629.59
2022-11-19T04:15:55.313Z,100627.80
2022-11-19T04:21:19.689Z,100617.30
2022-11-19T04:26:41.860Z,100636.37
2022-11-19T04:32:04.105Z,100632.00
2022-11-19T04:37:26.277Z,100629.36
2022-11-19T04:42:48.648Z,100614.53
2022-11-19T04:48:10.914Z,100610.13
2022-11-19T04:53:33.632Z,100612.63
2022-11-19T04:58:56.306Z,100610.87
2022-11-19T05:04:18.664Z,100603.73
2022-11-19T05:09:43.377Z,100596.63
2022-11-19T05:15:05.645Z,100600.16
2022-11-19T05:20:28.105Z,100595.73
2022-11-19T05:25:50.483Z,100584.25
2022-11-19T05:31:13.714Z,100580.63
2022-11-19T05:36:35.878Z,100573.63
2022-11-19T05:41:58.041Z,100575.39
2022-11-19T05:47:21.693Z,100581.63
2022-11-19T05:52:46.557Z,100583.41
2022-11-19T05:58:08.752Z,100578.97
2022-11-19T06:03:34.032Z,100591.08
2022-11-19T06:08:56.402Z,100582.30
2022-11-19T06:19:56.921Z,100594.19
2022-11-19T06:25:21.606Z,100587.29
2022-11-19T06:30:43.788Z,100588.08
2022-11-19T06:36:07.482Z,100605.50
2022-11-19T06:41:30.865Z,100607.23
2022-11-19T06:46:53.902Z,100621.24
2022-11-19T06:52:16.468Z,100622.08
2022-11-19T06:57:42.033Z,100618.50
2022-11-19T07:03:06.747Z,100614.89
2022-11-19T07:08:30.956Z,100618.27
2022-11-19T07:14:00.307Z,100611.08
2022-11-19T07:19:24.344Z,100607.45
2022-11-19T07:24:46.523Z,100609.87
2022-11-19T07:30:08.920Z,100617.62
2022-11-19T07:35:31.998Z,100615.77
2022-11-19T07:41:00.922Z,100620.80
2022-11-19T07:46:24.749Z,100628.61
2022-11-19T07:51:47.078Z,100632.06
2022-11-19T07:57:09.672Z,100623.23
2022-11-19T08:02:32.226Z,100626.59
2022-11-19T08:07:56.273Z,100627.36
2022-11-19T08:13:18.444Z,100622.88
2022-11-19T08:18:41.607Z,100630.78
2022-11-19T08:24:04.294Z,100629.86
2022-11-19T08:29:28.401Z,100629.76
2022-11-19T08:34:50.600Z,100621.16
2022-11-19T08:40:13.153Z,100624.58
2022-11-19T08:45:36.612Z,100624.44
2022-11-19T08:51:00.624Z,100630.45
2022-11-19T08:56:22.895Z,100626.97
2022-11-19T09:01:45.077Z,100627.69
2022-11-19T09:07:07.338Z,100623.09
2022-11-19T09:12:30.092Z,100631.66
2022-11-19T09:17:52.358Z,100622.09
2022-11-19T09:23:15.996Z,100620.25
2022-11-19T09:28:38.806Z,100616.58
2022-11-19T09:34:04.183Z,100616.58
2022-11-19T09:39:26.537Z,100611.92
2022-11-19T09:45:13.430Z,100603.92
2022-11-19T09:50:48.936Z,100603.10
2022-11-19T09:56:11.286Z,100598.39
2022-11-19T10:01:35.259Z,100600.86
2022-11-19T10:07:40.364Z,100597.13
2022-11-19T10:13:55.762Z,100592.03
2022-11-19T10:19:54.455Z,100585.13
2022-11-19T10:25:21.582Z,100579.59
2022-11-19T10:30:45.983Z,100573.34
2022-11-19T10:36:18.412Z,100567.83
2022-11-19T10:41:54.571Z,100556.35
2022-11-19T10:47:32.371Z,100553.55
2022-11-19T10:53:05.697Z,100550.37
2022-11-19T10:58:41.387Z,100556.58
2022-11-19T11:04:21.693Z,100544.84
2022-11-19T11:09:49.875Z,100546.92
2022-11-19T11:15:31.478Z,100540.84
2022-11-19T11:20:59.701Z,100541.05
2022-11-19T11:26:27.084Z,100532.61
2022-11-19T11:31:55.623Z,100546.73
2022-11-19T11:37:19.926Z,100544.36
2022-11-19T11:42:46.813Z,100529.90
2022-11-19T11:48:17.595Z,100531.42
2022-11-19T11:53:47.538Z,100519.16
2022-11-19T11:59:16.239Z,100526.13
2022-11-19T12:04:39.119Z,100523.45
2022-11-19T12:10:25.362Z,100529.45
2022-11-19T12:16:18.030Z,100516.97
2022-11-19T12:22:18.167Z,100525.28
2022-11-19T12:28:18.935Z,100506.58
2022-11-19T12:33:51.497Z,100499.38
2022-11-19T12:45:27.244Z,100483.22
2022-11-19T12:50:59.080Z,100490.03
2022-11-19T12:56:40.675Z,100475.34
2022-11-19T13:02:09.494Z,100481.73
2022-11-19T13:07:40.301Z,100478.55
2022-11-19T13:13:08.663Z,100486.42
2022-11-19T13:18:35.100Z,100493.48
2022-11-19T13:24:00.551Z,100488.36
2022-11-19T13:29:39.692Z,100488.28
2022-11-19T13:35:32.667Z,100486.55
2022-11-19T13:41:03.060Z,100486.47
2022-11-19T13:46:51.170Z,100486.64
2022-11-19T13:52:30.281Z,100484.05
2022-11-19T13:57:56.103Z,100485.90
2022-11-19T14:03:44.466Z,100492.88
2022-11-19T14:09:42.924Z,100495.50
2022-11-19T14:21:51.495Z,100496.98
2022-11-19T14:27:38.472Z,100494.60
2022-11-19T14:33:03.849Z,100510.24
2022-11-19T14:38:39.783Z,100497.97
2022-11-19T14:44:32.806Z,100485.70
2022-11-19T14:49:57.535Z,100484.80
2022-11-19T14:55:33.355Z,100477.77
2022-11-19T15:00:56.935Z,100472.51
2022-11-19T15:06:22.617Z,100468.94
2022-11-19T15:12:06.567Z,100475.02
2022-11-19T15:17:29.698Z,100476.70
2022-11-19T15:23:05.651Z,100473.93
2022-11-19T15:28:53.988Z,100472.08
2022-11-19T15:34:56.248Z,100465.87
2022-11-19T15:40:03.656Z,100467.45
2022-11-19T15:45:38.986Z,100467.23
2022-11-19T15:51:02.263Z,100468.96
2022-11-19T15:56:27.024Z,100462.73
2022-11-19T16:01:49.956Z,100468.00
2022-11-19T16:07:14.031Z,100466.19
2022-11-19T16:12:58.902Z,100458.25
2022-11-19T16:18:28.818Z,100466.95
2022-11-19T16:24:10.900Z,100474.75
2022-11-19T16:29:39.648Z,100471.22
2022-11-19T16:35:04.205Z,100473.84
2022-11-19T16:40:30.525Z,100466.77
2022-11-19T16:45:55.226Z,100473.71
2022-11-19T16:51:44.102Z,100478.91
2022-11-19T16:57:07.644Z,100488.57
2022-11-19T17:02:37.890Z,100487.66
2022-11-19T17:08:28.974Z,100484.13
2022-11-19T17:13:51.171Z,100485.77
2022-11-19T17:19:24.274Z,100498.09
2022-11-19T17:24:53.052Z,100503.31
2022-11-19T17:30:26.898Z,100505.89
2022-11-19T17:35:53.202Z,100504.89
2022-11-19T17:41:21.443Z,100498.67
2022-11-19T17:46:44.516Z,100509.20
2022-11-19T17:52:06.701Z,100506.56
2022-11-19T17:57:29.036Z,100521.58
2022-11-19T18:02:51.333Z,100519.81
2022-11-19T18:08:13.547Z,100516.17
2022-11-19T18:13:40.162Z,100510.91
2022-11-19T18:19:03.622Z,100502.26
2022-11-19T18:24:28.003Z,100503.25
2022-11-19T18:29:50.605Z,100512.92
2022-11-19T18:35:14.721Z,100505.98
2022-11-19T18:40:37.543Z,100515.69
2022-11-19T18:46:00.200Z,100520.09
2022-11-19T18:51:24.027Z,100515.77
2022-11-19T18:56:46.972Z,100524.57
2022-11-19T19:02:11.297Z,100520.19
2022-11-19T19:07:34.626Z,100523.66
2022-11-19T19:12:56.934Z,100521.03
2022-11-19T19:18:19.673Z,100528.08
2022-11-19T19:23:42.464Z,100535.14
2022-11-19T19:29:11.950Z,100532.52
2022-11-19T19:34:36.634Z,100536.77
2022-11-19T19:39:59.578Z,100536.83
2022-11-19T19:45:22.082Z,100542.13
2022-11-19T19:50:44.711Z,100549.11
2022-11-19T19:56:18.856Z,100551.74
2022-11-19T20:01:44.370Z,100558.76
2022-11-19T20:07:07.383Z,100562.27
2022-11-19T20:12:31.239Z,100576.27
2022-11-19T20:17:53.504Z,100565.80
2022-11-19T20:23:16.274Z,100578.91
2022-11-19T20:28:38.659Z,100575.41
2022-11-19T20:34:04.671Z,100576.27
2022-11-19T20:39:27.204Z,100581.52
2022-11-19T20:44:49.671Z,100579.72
2022-11-19T20:50:12.374Z,100572.69
2022-11-19T20:55:34.563Z,100578.81
2022-11-19T21:00:56.765Z,100569.06
2022-11-19T21:06:20.694Z,100563.77
2022-11-19T21:11:42.997Z,100568.11
2022-11-19T21:17:05.255Z,100568.97
2022-11-19T21:22:27.969Z,100575.09
2022-11-19T21:27:50.160Z,100574.05
2022-11-19T21:33:12.391Z,100571.47
2022-11-19T21:38:35.056Z,100567.03
2022-11-19T21:43:57.465Z,100573.14
2022-11-19T21:49:20.665Z,100570.38
2022-11-19T21:54:43.561Z,100566.84
2022-11-19T22:00:05.750Z,100565.92
2022-11-19T22:05:28.209Z,100566.78
2022-11-19T22:10:50.520Z,100570.33
2022-11-19T22:16:19.297Z,100572.97
2022-11-19T22:21:42.230Z,100565.94
2022-11-19T22:27:04.405Z,100558.91
2022-11-19T22:32:26.868Z,100565.92
2022-11-19T22:37:49.186Z,100567.65
2022-11-19T22:43:11.382Z,100567.65
2022-11-19T22:48:36.590Z,100573.88
2022-11-19T22:53:59.707Z,100574.69
2022-11-19T22:59:22.749Z,100574.68
2022-11-19T23:04:45.365Z,100570.28
2022-11-19T23:10:07.567Z,100563.29
2022-11-19T23:15:29.754Z,100565.87
2022-11-19T23:20:52.019Z,100565.03
2022-11-19T23:26:20.047Z,100565.92
2022-11-19T23:31:45.346Z,100556.27
2022-11-19T23:37:07.545Z,100551.88
2022-11-19T23:42:29.742Z,100550.14
2022-11-19T23:47:55.266Z,100544.89
2022-11-19T23:53:17.449Z,100555.40
2022-11-19T23:58:40.283Z,100555.45
